Time;durP1;ratioP1;P1;durP2;ratioP2;P2;SDS_P1;SDS_P2;PMS_P1;PMS_P2;Temp;Humidity;BMP_temperature;BMP_pressure;BME280_temperature;BME280_humidity;BME280_pressure;Samples;Min_cycle;Max_cycle;Signal;HPM_P1;HPM_P2
2023/05/06 00:00:26;;;;;;;7.70;6.90;;;14.20;99.90;;;;;;5029390;28;20444;-67
2023/05/06 00:02:53;;;;;;;7.73;7.10;;;14.10;99.90;;;;;;5026926;28;21129;-67
2023/05/06 00:05:21;;;;;;;8.23;7.53;;;14.10;99.90;;;;;;5026556;28;21183;-66
2023/05/06 00:07:48;;;;;;;7.77;7.07;;;14.10;99.90;;;;;;5028414;28;20939;-67
2023/05/06 00:10:15;;;;;;;7.50;6.83;;;14.10;99.90;;;;;;5013320;28;21004;-67
2023/05/06 00:12:42;;;;;;;7.63;6.83;;;14.00;99.90;;;;;;5016966;28;20457;-66
2023/05/06 00:15:10;;;;;;;9.80;7.33;;;14.00;99.90;;;;;;5009719;28;20472;-66
2023/05/06 00:17:37;;;;;;;7.40;6.80;;;14.00;99.90;;;;;;5015240;28;20817;-65
2023/05/06 00:20:05;;;;;;;7.83;7.17;;;14.00;99.90;;;;;;5030300;28;20471;-64
2023/05/06 00:22:33;;;;;;;7.40;6.80;;;14.10;99.90;;;;;;5032706;28;20831;-68
2023/05/06 00:25:00;;;;;;;9.10;7.53;;;14.00;99.90;;;;;;5032267;28;20472;-69
2023/05/06 00:27:27;;;;;;;7.90;7.20;;;14.00;99.90;;;;;;5031890;28;20468;-67
2023/05/06 00:29:54;;;;;;;7.40;6.70;;;13.90;99.90;;;;;;5032637;28;21021;-68
2023/05/06 00:32:21;;;;;;;6.80;6.30;;;14.00;99.90;;;;;;5032376;28;20460;-66
2023/05/06 00:34:47;;;;;;;5.80;5.23;;;14.10;99.90;;;;;;5031591;28;20468;-67
2023/05/06 00:37:14;;;;;;;5.23;3.97;;;14.10;99.90;;;;;;5032460;28;20537;-67
2023/05/06 00:39:42;;;;;;;4.33;4.03;;;14.10;99.90;;;;;;5033304;28;20455;-68
2023/05/06 00:42:09;;;;;;;4.40;4.00;;;14.10;99.90;;;;;;5031508;28;20452;-67
2023/05/06 00:44:36;;;;;;;4.53;4.20;;;14.10;99.90;;;;;;5030642;28;20463;-70
2023/05/06 00:47:03;;;;;;;5.00;3.90;;;14.10;99.90;;;;;;5032511;28;20445;-68
2023/05/06 00:49:30;;;;;;;5.07;4.57;;;14.00;99.90;;;;;;5032440;28;20466;-69
2023/05/06 00:51:58;;;;;;;5.00;4.60;;;13.90;99.90;;;;;;5032727;28;20962;-66
2023/05/06 00:54:25;;;;;;;7.57;4.60;;;13.80;99.90;;;;;;5030184;28;20464;-68
2023/05/06 00:56:54;;;;;;;4.30;4.00;;;13.70;99.90;;;;;;5033796;28;20456;-69
2023/05/06 00:59:21;;;;;;;5.43;4.87;;;13.70;99.90;;;;;;5032993;28;20541;-68
2023/05/06 01:01:48;;;;;;;5.10;4.70;;;13.60;99.90;;;;;;5032612;28;20893;-66
2023/05/06 01:04:15;;;;;;;5.90;4.90;;;13.60;99.90;;;;;;5031206;28;20789;-68
2023/05/06 01:06:50;;;;;;;5.93;5.33;;;13.60;99.90;;;;;;5032649;28;20455;-64
2023/05/06 01:09:22;;;;;;;5.33;4.83;;;13.60;99.90;;;;;;5032909;28;20456;-67
2023/05/06 01:11:53;;;;;;;5.10;4.70;;;13.60;99.90;;;;;;5033303;28;20443;-68
2023/05/06 01:14:28;;;;;;;5.90;5.40;;;13.60;99.90;;;;;;5032086;28;20477;-67
2023/05/06 01:17:00;;;;;;;4.63;4.23;;;13.60;99.90;;;;;;5032856;28;20448;-67
2023/05/06 01:19:37;;;;;;;5.60;5.10;;;13.70;99.90;;;;;;5033352;28;21018;-67
2023/05/06 01:22:06;;;;;;;5.50;5.00;;;13.60;99.90;;;;;;5032624;28;21447;-67
2023/05/06 01:24:38;;;;;;;5.10;4.57;;;13.50;99.90;;;;;;5031858;28;20473;-69
2023/05/06 01:27:06;;;;;;;5.87;5.30;;;13.40;99.90;;;;;;5033738;28;20499;-68
2023/05/06 01:29:35;;;;;;;5.33;4.83;;;13.40;99.90;;;;;;5032493;28;20512;-66
2023/05/06 01:32:16;;;;;;;6.00;5.20;;;13.40;99.90;;;;;;5032146;28;20535;-67
2023/05/06 01:34:49;;;;;;;4.70;4.30;;;13.40;99.90;;;;;;5032486;28;20568;-66
2023/05/06 01:37:22;;;;;;;7.47;5.10;;;13.50;99.90;;;;;;5033395;28;20445;-67
2023/05/06 01:39:52;;;;;;;5.60;5.10;;;13.50;99.90;;;;;;5031987;28;20445;-67
2023/05/06 01:42:21;;;;;;;5.03;4.63;;;13.40;99.90;;;;;;5031731;28;20448;-65
2023/05/06 01:44:49;;;;;;;6.67;5.83;;;13.40;99.90;;;;;;5031327;28;20471;-70
2023/05/06 01:47:17;;;;;;;5.80;5.17;;;13.50;99.90;;;;;;5031767;28;20459;-70
2023/05/06 01:49:45;;;;;;;5.37;4.70;;;13.60;99.90;;;;;;5032291;28;20483;-65
2023/05/06 01:52:12;;;;;;;5.10;4.63;;;13.60;99.90;;;;;;5031692;28;20447;-66
2023/05/06 01:54:39;;;;;;;5.87;4.87;;;13.50;99.90;;;;;;5030949;28;20479;-67
2023/05/06 01:57:07;;;;;;;5.17;4.77;;;13.50;99.90;;;;;;5031786;28;20455;-67
2023/05/06 01:59:34;;;;;;;8.60;5.60;;;13.50;99.90;;;;;;5031818;28;20449;-67
2023/05/06 02:02:01;;;;;;;5.40;4.93;;;13.50;99.90;;;;;;5030995;28;20456;-66
2023/05/06 02:04:28;;;;;;;5.93;5.43;;;13.60;99.90;;;;;;5019611;28;20469;-67
2023/05/06 02:06:55;;;;;;;5.90;5.30;;;13.60;99.90;;;;;;5014531;28;20454;-68
2023/05/06 02:09:22;;;;;;;5.63;5.07;;;13.60;99.90;;;;;;5016186;28;20492;-67
2023/05/06 02:11:49;;;;;;;5.27;4.77;;;13.60;99.90;;;;;;5015705;28;20870;-69
2023/05/06 02:14:17;;;;;;;7.90;5.40;;;13.70;99.90;;;;;;5013903;28;20557;-67
2023/05/06 02:16:44;;;;;;;6.50;5.90;;;13.60;99.90;;;;;;5016041;28;20464;-68
2023/05/06 02:19:11;;;;;;;7.83;5.77;;;13.60;99.90;;;;;;5015598;28;20452;-69
2023/05/06 02:21:38;;;;;;;6.63;5.27;;;13.60;99.90;;;;;;5016007;28;20440;-67
2023/05/06 02:24:05;;;;;;;5.63;5.13;;;13.70;99.90;;;;;;5013321;28;20558;-68
2023/05/06 02:26:32;;;;;;;6.63;5.93;;;13.70;99.90;;;;;;5015298;28;20536;-68
2023/05/06 02:28:59;;;;;;;6.33;5.70;;;13.70;99.90;;;;;;5013832;28;20454;-67
2023/05/06 02:31:27;;;;;;;6.20;5.60;;;13.70;99.90;;;;;;5014783;28;20481;-67
2023/05/06 02:33:54;;;;;;;6.50;5.67;;;13.70;99.90;;;;;;5023338;28;20557;-68
2023/05/06 02:36:21;;;;;;;6.57;6.00;;;13.70;99.90;;;;;;5034187;28;20467;-68
2023/05/06 02:38:47;;;;;;;6.93;6.30;;;13.70;99.90;;;;;;5033886;28;20456;-68
2023/05/06 02:41:14;;;;;;;6.67;6.07;;;13.60;99.90;;;;;;5034145;28;20493;-67
2023/05/06 02:43:41;;;;;;;7.80;7.10;;;13.60;99.90;;;;;;5032913;28;20457;-69
2023/05/06 02:46:08;;;;;;;7.23;6.53;;;13.60;99.90;;;;;;5033686;28;20461;-67
2023/05/06 02:48:36;;;;;;;8.07;7.27;;;13.70;99.90;;;;;;5034742;28;20805;-68
2023/05/06 02:51:03;;;;;;;7.80;5.67;;;13.60;99.90;;;;;;5033402;28;20492;-68
2023/05/06 02:53:29;;;;;;;6.50;5.90;;;13.60;99.90;;;;;;5032265;28;20455;-68
2023/05/06 02:55:56;;;;;;;7.27;6.57;;;13.60;99.90;;;;;;5033813;28;20446;-68
2023/05/06 02:58:25;;;;;;;8.90;6.50;;;13.60;99.90;;;;;;5033588;28;20965;-68
2023/05/06 03:00:51;;;;;;;7.53;6.00;;;13.60;99.90;;;;;;5034234;28;20975;-67
2023/05/06 03:03:18;;;;;;;7.47;6.40;;;13.60;99.90;;;;;;5032354;28;20455;-67
2023/05/06 03:05:46;;;;;;;6.33;5.57;;;13.50;99.90;;;;;;5033229;28;20478;-71
2023/05/06 03:08:13;;;;;;;6.60;6.10;;;13.40;99.90;;;;;;5033476;28;20449;-69
2023/05/06 03:10:40;;;;;;;8.10;6.67;;;13.50;99.90;;;;;;5032929;28;20937;-70
2023/05/06 03:13:07;;;;;;;7.20;6.47;;;13.40;99.90;;;;;;5032621;28;20440;-67
2023/05/06 03:15:33;;;;;;;6.23;5.57;;;13.40;99.90;;;;;;5032845;28;21002;-70
2023/05/06 03:18:00;;;;;;;7.17;6.57;;;13.40;99.90;;;;;;5031983;28;20513;-69
2023/05/06 03:20:27;;;;;;;6.80;6.20;;;13.40;99.90;;;;;;5033001;28;20447;-67
2023/05/06 03:22:55;;;;;;;7.00;6.37;;;13.40;99.90;;;;;;5031646;28;20452;-70
2023/05/06 03:25:22;;;;;;;6.13;5.63;;;13.50;99.90;;;;;;5033346;28;20844;-69
2023/05/06 03:27:49;;;;;;;6.63;6.03;;;13.50;99.90;;;;;;5032653;28;20501;-67
2023/05/06 03:30:16;;;;;;;7.03;6.43;;;13.50;99.90;;;;;;5033045;28;20448;-67
2023/05/06 03:32:43;;;;;;;7.07;6.47;;;13.50;99.90;;;;;;5031654;28;20954;-66
2023/05/06 03:35:10;;;;;;;7.33;6.70;;;13.50;99.90;;;;;;5032313;28;20468;-67
2023/05/06 03:37:37;;;;;;;7.50;6.90;;;13.50;99.90;;;;;;5032865;28;20835;-70
2023/05/06 03:40:06;;;;;;;7.63;6.93;;;13.40;99.90;;;;;;5032418;28;20548;-68
2023/05/06 03:42:33;;;;;;;10.90;6.60;;;13.40;99.90;;;;;;5031781;28;20452;-68
2023/05/06 03:45:00;;;;;;;7.93;7.23;;;13.40;99.90;;;;;;5031972;28;20493;-67
2023/05/06 03:47:27;;;;;;;9.00;7.40;;;13.40;99.90;;;;;;5032778;28;20455;-71
2023/05/06 03:49:53;;;;;;;7.70;7.10;;;13.30;99.90;;;;;;5032927;28;20455;-68
2023/05/06 03:52:20;;;;;;;8.33;7.53;;;13.30;99.90;;;;;;5031769;28;20489;-66
2023/05/06 03:54:47;;;;;;;8.30;7.50;;;13.20;99.90;;;;;;5032051;28;20480;-71
2023/05/06 03:57:15;;;;;;;8.80;8.10;;;13.10;99.90;;;;;;5032152;28;20687;-67
2023/05/06 03:59:42;;;;;;;8.40;7.60;;;13.00;99.90;;;;;;5032531;28;20818;-67
2023/05/06 04:02:09;;;;;;;7.70;7.20;;;12.80;99.90;;;;;;5031773;28;20437;-67
2023/05/06 04:04:36;;;;;;;9.10;8.23;;;12.70;99.90;;;;;;5031258;28;21062;-68
2023/05/06 04:07:03;;;;;;;9.33;8.27;;;12.70;99.90;;;;;;5014861;28;20449;-68
2023/05/06 04:09:31;;;;;;;9.20;8.30;;;12.60;99.90;;;;;;5012751;28;20450;-68
2023/05/06 04:11:58;;;;;;;8.80;8.10;;;12.50;99.90;;;;;;5012682;28;20485;-70
2023/05/06 04:14:26;;;;;;;8.70;8.10;;;12.50;99.90;;;;;;5011252;28;21003;-65
2023/05/06 04:16:53;;;;;;;9.83;9.07;;;12.30;99.90;;;;;;5011697;28;20481;-66
2023/05/06 04:19:20;;;;;;;10.10;9.10;;;12.20;99.90;;;;;;5011238;28;20449;-68
2023/05/06 04:21:47;;;;;;;9.57;8.17;;;12.20;99.90;;;;;;5012219;28;20822;-66
2023/05/06 04:24:14;;;;;;;8.80;8.00;;;12.20;99.90;;;;;;5009976;28;20465;-66
2023/05/06 04:26:41;;;;;;;10.00;9.20;;;12.10;99.90;;;;;;5012046;28;20451;-65
2023/05/06 04:29:08;;;;;;;12.00;10.90;;;12.10;99.90;;;;;;5012133;28;20460;-67
2023/05/06 04:31:36;;;;;;;9.63;8.83;;;12.10;99.90;;;;;;5012304;28;20489;-67
2023/05/06 04:34:03;;;;;;;9.67;8.77;;;12.10;99.90;;;;;;5010889;28;20473;-67
2023/05/06 04:36:30;;;;;;;9.70;8.90;;;12.10;99.90;;;;;;5012189;28;20445;-68
2023/05/06 04:38:57;;;;;;;10.77;9.73;;;12.20;99.90;;;;;;5012634;28;20936;-69
2023/05/06 04:41:24;;;;;;;11.33;10.23;;;12.20;99.90;;;;;;5012411;28;20447;-65
2023/05/06 04:43:51;;;;;;;10.73;9.73;;;12.20;99.90;;;;;;5015859;28;20476;-68
2023/05/06 04:46:18;;;;;;;12.57;11.40;;;12.30;99.90;;;;;;5030147;28;20513;-69
2023/05/06 04:48:46;;;;;;;11.37;10.37;;;12.30;99.90;;;;;;5030246;28;20441;-70
2023/05/06 04:51:14;;;;;;;10.80;9.80;;;12.20;99.90;;;;;;5022983;28;20512;-66
2023/05/06 04:53:41;;;;;;;10.10;9.10;;;12.20;99.90;;;;;;5013334;28;20460;-66
2023/05/06 04:56:08;;;;;;;12.50;9.73;;;12.20;99.90;;;;;;5013420;28;20446;-65
2023/05/06 04:58:34;;;;;;;10.63;9.60;;;12.20;99.90;;;;;;5011981;28;20466;-66
2023/05/06 05:01:04;;;;;;;9.87;8.97;;;12.30;99.90;;;;;;5012000;28;20541;-66
2023/05/06 05:03:31;;;;;;;9.90;8.93;;;12.30;99.90;;;;;;5011132;28;20449;-65
2023/05/06 05:05:59;;;;;;;10.07;9.10;;;12.40;99.90;;;;;;5011705;28;20499;-66
2023/05/06 05:08:26;;;;;;;10.10;9.13;;;12.40;99.90;;;;;;5011941;28;20475;-68
2023/05/06 05:10:53;;;;;;;10.33;9.30;;;12.50;99.90;;;;;;5011667;28;20454;-69
2023/05/06 05:13:20;;;;;;;10.80;9.90;;;12.50;99.90;;;;;;5010365;28;20455;-66
2023/05/06 05:15:47;;;;;;;12.07;10.53;;;12.60;99.90;;;;;;5011188;28;20472;-68
2023/05/06 05:18:14;;;;;;;11.23;10.33;;;12.60;99.90;;;;;;5011504;28;20449;-66
2023/05/06 05:20:40;;;;;;;10.67;9.67;;;12.80;99.90;;;;;;5011102;28;20476;-66
2023/05/06 05:23:09;;;;;;;11.50;10.50;;;12.90;99.90;;;;;;5008809;28;20533;-67
2023/05/06 05:25:35;;;;;;;13.57;11.43;;;13.00;99.90;;;;;;5009964;28;20470;-68
2023/05/06 05:28:02;;;;;;;12.80;11.53;;;13.00;99.90;;;;;;5009869;28;20802;-66
2023/05/06 05:30:29;;;;;;;13.10;11.80;;;13.00;99.90;;;;;;5010399;28;20451;-68
2023/05/06 05:32:56;;;;;;;11.40;10.30;;;13.00;99.90;;;;;;5008896;28;20523;-66
2023/05/06 05:35:23;;;;;;;10.17;9.27;;;13.10;99.90;;;;;;5009850;28;20457;-66
2023/05/06 05:37:50;;;;;;;10.60;9.17;;;13.10;99.90;;;;;;5010044;28;20483;-68
2023/05/06 05:40:18;;;;;;;11.53;10.53;;;13.20;99.90;;;;;;5009896;28;20480;-68
2023/05/06 05:42:44;;;;;;;10.30;9.50;;;13.40;99.90;;;;;;5012611;28;20445;-66
2023/05/06 05:45:11;;;;;;;10.33;9.43;;;13.70;99.90;;;;;;5013642;28;20472;-67
2023/05/06 05:47:38;;;;;;;9.00;8.27;;;14.00;99.90;;;;;;5014052;28;20475;-68
2023/05/06 05:50:06;;;;;;;9.80;8.90;;;14.20;99.90;;;;;;5014147;28;20451;-65
2023/05/06 05:52:33;;;;;;;9.67;8.80;;;14.30;99.90;;;;;;5012617;28;20995;-66
2023/05/06 05:55:00;;;;;;;9.50;8.70;;;14.30;99.90;;;;;;5013558;28;20462;-66
2023/05/06 05:57:28;;;;;;;8.40;7.53;;;14.20;99.90;;;;;;5013325;28;20458;-67
2023/05/06 05:59:55;;;;;;;6.67;6.17;;;14.20;99.90;;;;;;5013559;28;20457;-67
2023/05/06 06:02:22;;;;;;;9.33;6.53;;;14.20;99.90;;;;;;5012298;28;20441;-67
2023/05/06 06:04:49;;;;;;;6.57;6.03;;;14.20;99.90;;;;;;5008915;28;20482;-69
2023/05/06 06:07:16;;;;;;;7.20;6.60;;;14.30;99.90;;;;;;5012932;28;20944;-67
2023/05/06 06:09:45;;;;;;;7.80;7.10;;;14.40;99.90;;;;;;5013038;28;20479;-68
2023/05/06 06:12:12;;;;;;;9.00;8.20;;;14.50;99.90;;;;;;5006826;28;20838;-64
2023/05/06 06:14:40;;;;;;;8.30;7.40;;;14.70;99.90;;;;;;5011780;28;20471;-68
2023/05/06 06:17:07;;;;;;;9.00;8.10;;;14.90;99.90;;;;;;5013075;28;20553;-66
2023/05/06 06:19:34;;;;;;;7.20;6.60;;;15.10;99.90;;;;;;5012721;28;20820;-66
2023/05/06 06:22:01;;;;;;;8.63;7.80;;;15.20;99.90;;;;;;5012690;28;20460;-69
2023/05/06 06:24:28;;;;;;;9.27;7.40;;;15.40;99.90;;;;;;5011577;28;20567;-69
2023/05/06 06:26:54;;;;;;;6.43;5.83;;;15.60;99.90;;;;;;5012919;28;20452;-66
2023/05/06 06:29:21;;;;;;;5.90;5.40;;;15.50;99.90;;;;;;5012820;28;20460;-68
2023/05/06 06:31:49;;;;;;;4.50;4.10;;;15.60;99.90;;;;;;5012411;28;20490;-68
2023/05/06 06:34:16;;;;;;;7.73;5.40;;;15.80;99.90;;;;;;5011388;28;20479;-68
2023/05/06 06:36:44;;;;;;;7.63;6.90;;;16.00;99.90;;;;;;5012316;28;20446;-65
2023/05/06 06:39:11;;;;;;;7.80;6.63;;;16.20;99.90;;;;;;5012670;28;20520;-67
2023/05/06 06:41:38;;;;;;;7.90;6.97;;;16.50;99.90;;;;;;5012730;28;20454;-67
2023/05/06 06:44:05;;;;;;;6.13;5.60;;;16.60;98.40;;;;;;5011148;28;20465;-67
2023/05/06 06:46:32;;;;;;;6.00;5.50;;;16.60;97.60;;;;;;5012503;28;20465;-67
2023/05/06 06:49:01;;;;;;;6.90;4.70;;;16.60;98.40;;;;;;5012191;28;20449;-67
2023/05/06 06:51:27;;;;;;;4.33;3.60;;;16.60;97.20;;;;;;5011915;28;20449;-66
2023/05/06 06:53:55;;;;;;;4.30;3.70;;;16.70;96.80;;;;;;5010254;28;20462;-66
2023/05/06 06:56:22;;;;;;;6.20;3.70;;;16.40;96.00;;;;;;5012483;28;20457;-67
2023/05/06 06:58:48;;;;;;;4.30;3.60;;;16.10;95.70;;;;;;5012327;28;20449;-67
2023/05/06 07:01:15;;;;;;;4.73;3.63;;;15.80;96.10;;;;;;5009880;28;20538;-70
2023/05/06 07:03:42;;;;;;;5.30;4.87;;;15.70;96.70;;;;;;5009759;28;20455;-68
2023/05/06 07:06:10;;;;;;;4.00;3.70;;;15.70;97.00;;;;;;5010604;28;21264;-67
2023/05/06 07:08:37;;;;;;;4.10;3.80;;;15.70;96.50;;;;;;5011248;28;20462;-67
2023/05/06 07:11:04;;;;;;;4.73;3.50;;;15.70;96.80;;;;;;5010835;28;20452;-67
2023/05/06 07:13:31;;;;;;;3.87;3.40;;;15.70;96.20;;;;;;5010290;28;20490;-65
2023/05/06 07:15:58;;;;;;;4.50;4.10;;;15.70;96.90;;;;;;5011192;28;20473;-65
2023/05/06 07:18:25;;;;;;;4.57;3.67;;;15.80;96.60;;;;;;5011797;28;20461;-66
2023/05/06 07:20:51;;;;;;;4.97;3.90;;;15.90;95.40;;;;;;5012452;28;20820;-64
2023/05/06 07:23:20;;;;;;;5.10;3.13;;;16.10;94.80;;;;;;5010586;28;20442;-68
2023/05/06 07:25:47;;;;;;;6.00;3.70;;;16.00;94.40;;;;;;5011305;28;20473;-68
2023/05/06 07:28:14;;;;;;;5.83;4.90;;;16.00;94.60;;;;;;5011389;28;20538;-65
2023/05/06 07:30:41;;;;;;;4.87;3.50;;;16.10;95.30;;;;;;5010768;28;20549;-68
2023/05/06 07:33:08;;;;;;;4.30;3.90;;;16.20;96.50;;;;;;5009530;28;20881;-64
2023/05/06 07:35:34;;;;;;;4.30;3.90;;;16.30;95.00;;;;;;5010834;28;20478;-66
2023/05/06 07:38:01;;;;;;;3.70;3.30;;;16.50;95.50;;;;;;5011530;28;20452;-66
2023/05/06 07:40:29;;;;;;;3.93;3.63;;;16.70;95.70;;;;;;5010441;28;20458;-67
2023/05/06 07:42:56;;;;;;;3.47;3.17;;;17.10;89.90;;;;;;5009044;28;20446;-65
2023/05/06 07:45:24;;;;;;;3.10;2.83;;;17.30;91.00;;;;;;5010459;28;20500;-68
2023/05/06 07:47:50;;;;;;;4.10;3.70;;;17.60;91.50;;;;;;5010430;28;20827;-64
2023/05/06 07:50:17;;;;;;;1.70;1.60;;;17.70;89.60;;;;;;5010715;28;20458;-67
2023/05/06 07:52:44;;;;;;;3.13;2.87;;;17.80;83.90;;;;;;5008889;28;20488;-66
2023/05/06 07:55:11;;;;;;;7.27;6.20;;;17.90;88.70;;;;;;5010004;28;20484;-66
2023/05/06 07:57:39;;;;;;;6.50;6.00;;;17.90;92.30;;;;;;5010097;28;20446;-67
2023/05/06 08:00:08;;;;;;;7.73;7.07;;;17.90;92.70;;;;;;5009918;28;20457;-67
2023/05/06 08:02:37;;;;;;;7.50;6.90;;;18.10;92.80;;;;;;5007993;28;20952;-66
2023/05/06 08:05:06;;;;;;;6.80;6.27;;;18.30;93.70;;;;;;5009621;28;20272;-65
2023/05/06 08:07:33;;;;;;;6.40;5.80;;;18.70;92.60;;;;;;5010362;28;20981;-66
2023/05/06 08:10:00;;;;;;;5.23;4.80;;;19.10;91.60;;;;;;5010512;28;20927;-67
2023/05/06 08:12:27;;;;;;;6.43;5.00;;;19.60;89.30;;;;;;5008265;28;20486;-66
2023/05/06 08:14:55;;;;;;;7.70;7.10;;;19.90;81.40;;;;;;5009760;28;20484;-66
2023/05/06 08:17:22;;;;;;;6.73;6.23;;;19.20;83.10;;;;;;5009993;28;20454;-68
2023/05/06 08:19:49;;;;;;;6.63;6.03;;;18.40;89.10;;;;;;5009830;28;20944;-67
2023/05/06 08:22:16;;;;;;;7.40;6.80;;;18.30;92.10;;;;;;5009266;28;20479;-67
2023/05/06 08:24:43;;;;;;;6.50;6.00;;;18.30;92.40;;;;;;5009140;28;20992;-67
2023/05/06 08:27:10;;;;;;;6.40;5.80;;;18.50;91.00;;;;;;5009766;28;20454;-66
2023/05/06 08:29:37;;;;;;;5.57;5.13;;;18.50;83.90;;;;;;5009927;28;20967;-67
2023/05/06 08:32:05;;;;;;;5.17;4.77;;;18.40;90.40;;;;;;5008910;28;20484;-68
2023/05/06 08:34:33;;;;;;;4.97;4.47;;;18.50;88.20;;;;;;5008746;28;20472;-66
2023/05/06 08:37:03;;;;;;;7.23;3.47;;;18.60;84.30;;;;;;5009307;28;20458;-67
2023/05/06 08:39:30;;;;;;;3.33;2.57;;;18.90;84.50;;;;;;5009345;28;20468;-67
2023/05/06 08:41:59;;;;;;;4.30;2.80;;;19.00;78.30;;;;;;5008911;28;20870;-68
2023/05/06 08:44:26;;;;;;;3.47;3.17;;;19.10;77.20;;;;;;5006034;28;20525;-67
2023/05/06 08:46:53;;;;;;;4.23;2.87;;;19.30;76.40;;;;;;4994480;28;20457;-66
2023/05/06 08:49:21;;;;;;;3.20;2.53;;;19.30;74.80;;;;;;4989717;28;20467;-69
2023/05/06 08:51:51;;;;;;;4.33;3.77;;;19.40;78.30;;;;;;4989654;28;20454;-67
2023/05/06 08:54:18;;;;;;;8.40;5.10;;;19.40;71.60;;;;;;4988041;28;20537;-67
2023/05/06 08:56:48;;;;;;;4.53;3.83;;;19.30;78.40;;;;;;4989736;28;20469;-65
2023/05/06 08:59:15;;;;;;;4.20;3.50;;;19.60;77.90;;;;;;4989682;28;20450;-67
2023/05/06 09:01:42;;;;;;;4.80;4.40;;;19.90;78.30;;;;;;4989640;28;20450;-66
2023/05/06 09:04:10;;;;;;;4.40;4.00;;;20.30;71.20;;;;;;4988141;28;20470;-68
2023/05/06 09:06:38;;;;;;;4.67;4.30;;;20.50;77.10;;;;;;4989210;28;20457;-67
2023/05/06 09:09:05;;;;;;;4.43;4.03;;;20.80;70.00;;;;;;4989812;28;20569;-67
2023/05/06 09:11:32;;;;;;;4.30;4.00;;;20.80;69.90;;;;;;4986654;28;20545;-67
2023/05/06 09:14:10;;;;;;;4.00;3.70;;;20.70;68.80;;;;;;4987343;28;20490;-64
2023/05/06 09:16:38;;;;;;;3.67;3.27;;;20.70;65.70;;;;;;4986202;28;20512;-67
2023/05/06 09:19:05;;;;;;;4.17;2.80;;;20.50;67.30;;;;;;5005946;28;20532;-68
2023/05/06 09:21:34;;;;;;;3.90;2.17;;;20.50;63.70;;;;;;5005911;28;20536;-67
2023/05/06 09:24:02;;;;;;;2.90;2.07;;;20.60;63.10;;;;;;5005021;28;20462;-66
2023/05/06 09:26:30;;;;;;;2.60;2.40;;;20.30;65.90;;;;;;5006436;28;20462;-65
2023/05/06 09:28:57;;;;;;;2.87;2.60;;;20.10;64.70;;;;;;5005774;28;20450;-66
2023/05/06 09:31:25;;;;;;;2.30;2.00;;;20.30;63.50;;;;;;4990237;28;20887;-67
2023/05/06 09:33:52;;;;;;;4.60;2.27;;;20.40;59.50;;;;;;4988821;28;20499;-67
2023/05/06 09:36:19;;;;;;;2.03;1.83;;;20.50;61.60;;;;;;4990029;28;20457;-66
2023/05/06 09:38:46;;;;;;;2.17;1.70;;;20.80;64.30;;;;;;4990299;28;20454;-67
2023/05/06 09:41:16;;;;;;;2.17;1.60;;;21.30;66.60;;;;;;4989134;28;20455;-66
2023/05/06 09:43:46;;;;;;;1.93;1.53;;;21.80;58.40;;;;;;4989193;28;20485;-66
2023/05/06 09:46:13;;;;;;;3.27;1.80;;;22.20;56.80;;;;;;4990511;28;20450;-66
2023/05/06 09:48:40;;;;;;;2.43;2.00;;;22.70;56.70;;;;;;4990026;28;21030;-67
2023/05/06 09:51:08;;;;;;;2.30;1.87;;;22.90;58.70;;;;;;4990547;28;20445;-67
2023/05/06 09:53:36;;;;;;;1.70;1.60;;;23.60;54.70;;;;;;4989019;28;20509;-68
2023/05/06 09:56:05;;;;;;;2.30;2.00;;;23.80;53.90;;;;;;4990213;28;20510;-68
2023/05/06 09:58:34;;;;;;;2.83;2.00;;;23.60;53.50;;;;;;4990328;28;20442;-67
2023/05/06 10:01:02;;;;;;;2.83;2.30;;;23.40;53.60;;;;;;4990360;28;20530;-66
2023/05/06 10:03:30;;;;;;;2.17;1.60;;;23.60;53.50;;;;;;4988887;28;20435;-68
2023/05/06 10:05:59;;;;;;;1.87;1.67;;;23.20;51.90;;;;;;4990198;28;20439;-67
2023/05/06 10:08:27;;;;;;;2.07;1.70;;;22.70;53.40;;;;;;4990227;28;20447;-67
2023/05/06 10:10:54;;;;;;;1.67;1.57;;;22.60;53.00;;;;;;4989751;28;20453;-67
2023/05/06 10:13:23;;;;;;;6.33;1.47;;;22.60;53.90;;;;;;4988792;28;21033;-66
2023/05/06 10:15:52;;;;;;;3.13;2.83;;;23.20;52.30;;;;;;4989652;28;20472;-67
2023/05/06 10:18:20;;;;;;;1.87;1.70;;;23.80;55.70;;;;;;4989938;28;20458;-66
2023/05/06 10:20:50;;;;;;;2.43;1.67;;;24.40;53.00;;;;;;4989940;28;20443;-67
2023/05/06 10:23:24;;;;;;;2.23;1.60;;;24.80;49.50;;;;;;4988677;28;20529;-66
2023/05/06 10:25:53;;;;;;;2.23;2.00;;;24.60;53.00;;;;;;4989770;28;20471;-67
2023/05/06 10:28:21;;;;;;;2.70;1.60;;;24.90;48.50;;;;;;4992610;28;20455;-67
2023/05/06 10:30:49;;;;;;;1.60;1.50;;;24.10;49.00;;;;;;4993403;28;20449;-67
2023/05/06 10:33:18;;;;;;;1.97;1.40;;;24.10;47.90;;;;;;4991836;28;20485;-67
2023/05/06 10:35:52;;;;;;;2.00;1.67;;;24.50;48.60;;;;;;4993297;28;20462;-68
2023/05/06 10:38:24;;;;;;;2.57;2.10;;;24.20;49.80;;;;;;4993078;28;20444;-66
2023/05/06 10:40:53;;;;;;;2.07;1.60;;;24.30;49.00;;;;;;4992873;28;20847;-66
2023/05/06 10:43:22;;;;;;;2.63;1.40;;;23.80;49.70;;;;;;4992179;28;20439;-66
2023/05/06 10:46:00;;;;;;;1.90;1.47;;;23.80;48.00;;;;;;4993002;28;20462;-65
2023/05/06 10:48:28;;;;;;;2.33;1.50;;;23.90;49.10;;;;;;4992900;28;20447;-66
2023/05/06 10:51:23;;;;;;;1.30;1.20;;;24.00;51.30;;;;;;4992822;28;20744;-67
2023/05/06 10:53:57;;;;;;;1.40;1.10;;;23.90;50.70;;;;;;4967845;28;20493;-67
2023/05/06 10:56:24;;;;;;;2.80;1.50;;;23.80;46.90;;;;;;4992882;28;20450;-67
2023/05/06 10:58:52;;;;;;;1.90;1.00;;;23.60;49.20;;;;;;4992985;28;20505;-66
2023/05/06 11:01:22;;;;;;;2.47;1.70;;;24.00;47.20;;;;;;4992502;28;20454;-68
2023/05/06 11:03:51;;;;;;;2.60;2.00;;;24.40;47.60;;;;;;4991622;28;20457;-66
2023/05/06 11:06:34;;;;;;;2.47;2.27;;;23.80;48.90;;;;;;4992483;28;20454;-67
2023/05/06 11:09:02;;;;;;;2.10;2.00;;;23.90;47.30;;;;;;4991319;28;20458;-67
2023/05/06 11:11:50;;;;;;;2.10;1.53;;;24.30;55.00;;;;;;4992138;28;20438;-66
2023/05/06 11:14:29;;;;;;;2.17;1.70;;;25.20;47.80;;;;;;4991328;28;20494;-67
2023/05/06 11:16:57;;;;;;;3.90;2.73;;;25.80;48.10;;;;;;4992605;28;20442;-67
2023/05/06 11:19:27;;;;;;;2.87;2.60;;;26.00;45.50;;;;;;4992348;28;20446;-66
2023/05/06 11:21:56;;;;;;;3.50;2.80;;;25.00;46.80;;;;;;4992304;28;20443;-68
2023/05/06 11:24:25;;;;;;;2.80;2.60;;;23.70;49.60;;;;;;4990650;28;20458;-68
2023/05/06 11:26:52;;;;;;;2.37;2.17;;;23.70;48.50;;;;;;4992436;28;20442;-67
2023/05/06 11:29:20;;;;;;;2.50;2.30;;;24.10;47.90;;;;;;4992427;28;20465;-67
2023/05/06 11:31:47;;;;;;;2.60;2.20;;;24.80;47.10;;;;;;4991961;28;20443;-67
2023/05/06 11:34:21;;;;;;;2.60;2.40;;;25.80;46.60;;;;;;4990780;28;20569;-69
2023/05/06 11:36:57;;;;;;;2.60;2.30;;;26.80;46.00;;;;;;4991721;28;20438;-67
2023/05/06 11:39:24;;;;;;;3.07;2.40;;;27.50;46.70;;;;;;4991366;28;20515;-68
2023/05/06 11:41:53;;;;;;;3.27;2.97;;;27.50;41.40;;;;;;4991859;28;20541;-66
2023/05/06 11:44:30;;;;;;;2.60;2.40;;;27.10;44.80;;;;;;4996504;28;21189;-66
2023/05/06 11:46:58;;;;;;;2.57;2.07;;;27.20;46.80;;;;;;5009205;28;20468;-65
2023/05/06 11:49:26;;;;;;;2.53;2.33;;;27.80;43.40;;;;;;5005096;28;20435;-66
2023/05/06 11:51:55;;;;;;;2.40;2.20;;;27.70;43.60;;;;;;4993163;28;20445;-66
2023/05/06 11:54:23;;;;;;;3.27;2.40;;;27.50;44.30;;;;;;5003780;28;20995;-68
2023/05/06 11:56:51;;;;;;;2.47;2.23;;;27.80;42.50;;;;;;5001333;28;20450;-66
2023/05/06 11:59:27;;;;;;;2.20;2.00;;;28.70;41.00;;;;;;4997640;28;20439;-66
2023/05/06 12:01:56;;;;;;;1.90;1.70;;;28.90;43.50;;;;;;5004063;28;21112;-65
2023/05/06 12:04:23;;;;;;;2.37;2.17;;;27.50;44.90;;;;;;5004043;28;20793;-67
2023/05/06 12:06:50;;;;;;;3.03;2.00;;;27.40;42.10;;;;;;5001342;28;20446;-66
2023/05/06 12:09:20;;;;;;;3.07;2.33;;;27.70;39.20;;;;;;4998084;28;20437;-67
2023/05/06 12:11:48;;;;;;;2.17;1.87;;;27.90;42.90;;;;;;5007297;28;20442;-66
2023/05/06 12:14:15;;;;;;;2.50;1.80;;;28.70;44.50;;;;;;4995152;28;20477;-66
2023/05/06 12:16:42;;;;;;;2.10;1.87;;;29.60;42.30;;;;;;5002200;28;20443;-66
2023/05/06 12:19:09;;;;;;;2.10;1.40;;;30.10;36.50;;;;;;5003842;28;20804;-68
2023/05/06 12:21:39;;;;;;;2.53;1.90;;;30.10;36.70;;;;;;4994631;28;20493;-67
2023/05/06 12:24:06;;;;;;;12.03;3.33;;;29.90;36.30;;;;;;4993856;28;20816;-66
2023/05/06 12:26:48;;;;;;;2.00;1.40;;;29.40;40.30;;;;;;5003241;28;20858;-68
2023/05/06 12:29:16;;;;;;;2.97;1.30;;;29.90;42.10;;;;;;5004003;28;20881;-66
2023/05/06 12:31:45;;;;;;;2.10;1.87;;;30.50;39.40;;;;;;4994163;28;20486;-64
2023/05/06 12:34:12;;;;;;;3.00;2.00;;;29.90;39.20;;;;;;5005277;28;20482;-66
2023/05/06 12:36:40;;;;;;;4.40;1.73;;;29.90;40.10;;;;;;4994647;28;20850;-67
2023/05/06 12:39:08;;;;;;;1.90;1.70;;;29.70;38.40;;;;;;5003753;28;20457;-66
2023/05/06 12:41:37;;;;;;;2.23;1.70;;;29.40;38.90;;;;;;4999876;28;20926;-66
2023/05/06 12:44:29;;;;;;;2.00;1.50;;;29.20;39.20;;;;;;5003865;28;20918;-67
2023/05/06 12:46:56;;;;;;;1.90;1.50;;;28.80;37.00;;;;;;4995914;28;20450;-67
2023/05/06 12:49:23;;;;;;;1.77;1.40;;;28.20;39.70;;;;;;5001212;28;20438;-65